EZY56LC EGGW-EGGD
Flight info
| Callsign | EZY56LC |
|---|---|
| Flight time | 0h 29m |
| Altitude | 18000 |
| Route | RODNI N27 ICTAM |
| Aircraft | A319/M-SDE3FGHIRWY/LB1 |
Departure
| Time | 2026-05-04 17:49 |
|---|---|
| Airport | London Luton Airport (EGGW) |
Arrival
| Time | 2026-05-04 18:18 |
|---|---|
| Airport | Bristol Airport (EGGD) |
| Time | Latitude | Longitude | Altitude | Speed | Heading |
|---|---|---|---|---|---|
| 2026-05-04 17:32 | 51.87842 | -0.37843 | 534 ft | 0 kts | 26° |
| 2026-05-04 17:41 | 51.87832 | -0.37851 | 534 ft | 3 kts | 26° |
| 2026-05-04 17:41 | 51.87815 | -0.37864 | 534 ft | 3 kts | 26° |
| 2026-05-04 17:41 | 51.87798 | -0.37878 | 534 ft | 3 kts | 26° |
| 2026-05-04 17:42 | 51.87784 | -0.37895 | 534 ft | 3 kts | 85° |
| 2026-05-04 17:42 | 51.87784 | -0.37904 | 534 ft | 0 kts | 84° |
| 2026-05-04 17:43 | 51.87784 | -0.37903 | 534 ft | 1 kts | 84° |
| 2026-05-04 17:44 | 51.87784 | -0.37896 | 534 ft | 1 kts | 85° |
| 2026-05-04 17:44 | 51.87783 | -0.37865 | 534 ft | 4 kts | 97° |
| 2026-05-04 17:44 | 51.87772 | -0.37816 | 534 ft | 6 kts | 111° |
| 2026-05-04 17:44 | 51.87751 | -0.37738 | 534 ft | 10 kts | 114° |
| 2026-05-04 17:45 | 51.87713 | -0.37602 | 534 ft | 16 kts | 114° |
| 2026-05-04 17:45 | 51.87641 | -0.37472 | 535 ft | 16 kts | 156° |
| 2026-05-04 17:45 | 51.87539 | -0.37472 | 536 ft | 15 kts | 209° |
| 2026-05-04 17:45 | 51.87491 | -0.37619 | 536 ft | 15 kts | 249° |
| 2026-05-04 17:46 | 51.87460 | -0.37783 | 536 ft | 15 kts | 259° |
| 2026-05-04 17:46 | 51.87437 | -0.37929 | 536 ft | 0 kts | 252° |
| 2026-05-04 17:46 | 51.87437 | -0.37931 | 536 ft | 1 kts | 252° |
| 2026-05-04 17:47 | 51.87434 | -0.37947 | 536 ft | 2 kts | 252° |
| 2026-05-04 17:47 | 51.87425 | -0.37988 | 536 ft | 6 kts | 252° |
| 2026-05-04 17:47 | 51.87382 | -0.38055 | 535 ft | 12 kts | 211° |
| 2026-05-04 17:47 | 51.87291 | -0.38111 | 533 ft | 13 kts | 180° |
| 2026-05-04 17:48 | 51.87254 | -0.38036 | 533 ft | 9 kts | 71° |
| 2026-05-04 17:48 | 51.87268 | -0.37967 | 535 ft | 0 kts | 74° |
| 2026-05-04 17:48 | 51.87275 | -0.37926 | 536 ft | 24 kts | 73° |
| 2026-05-04 17:48 | 51.87397 | -0.37221 | 537 ft | 103 kts | 75° |
| 2026-05-04 17:49 | 51.87647 | -0.35782 | 636 ft | 151 kts | 72° |
| 2026-05-04 17:49 | 51.87934 | -0.34182 | 1346 ft | 150 kts | 71° |
| 2026-05-04 17:49 | 51.88225 | -0.32556 | 2016 ft | 156 kts | 71° |
| 2026-05-04 17:49 | 51.88549 | -0.30744 | 2430 ft | 178 kts | 70° |
| 2026-05-04 17:50 | 51.88915 | -0.28689 | 2919 ft | 198 kts | 71° |
| 2026-05-04 17:50 | 51.89209 | -0.26471 | 3658 ft | 208 kts | 89° |
| 2026-05-04 17:50 | 51.88832 | -0.24159 | 3990 ft | 219 kts | 124° |
| 2026-05-04 17:50 | 51.87691 | -0.22609 | 4008 ft | 216 kts | 160° |
| 2026-05-04 17:51 | 51.86223 | -0.22339 | 4015 ft | 213 kts | 193° |
| 2026-05-04 17:51 | 51.84914 | -0.23367 | 4024 ft | 210 kts | 226° |
| 2026-05-04 17:51 | 51.84132 | -0.25465 | 4028 ft | 241 kts | 256° |
| 2026-05-04 17:51 | 51.83774 | -0.28233 | 4008 ft | 257 kts | 259° |
| 2026-05-04 17:52 | 51.83373 | -0.31043 | 4007 ft | 260 kts | 258° |
| 2026-05-04 17:52 | 51.82927 | -0.33919 | 4012 ft | 261 kts | 257° |
| 2026-05-04 17:52 | 51.82481 | -0.36727 | 4010 ft | 261 kts | 256° |
| 2026-05-04 17:52 | 51.82034 | -0.39572 | 4008 ft | 261 kts | 256° |
| 2026-05-04 17:53 | 51.81590 | -0.42423 | 4013 ft | 261 kts | 257° |
| 2026-05-04 17:53 | 51.81151 | -0.45292 | 4514 ft | 264 kts | 257° |
| 2026-05-04 17:53 | 51.80712 | -0.48173 | 5692 ft | 263 kts | 256° |
| 2026-05-04 17:53 | 51.80272 | -0.51060 | 6706 ft | 267 kts | 256° |
| 2026-05-04 17:54 | 51.79825 | -0.53987 | 7638 ft | 270 kts | 256° |
| 2026-05-04 17:54 | 51.79373 | -0.56946 | 8635 ft | 273 kts | 255° |
| 2026-05-04 17:54 | 51.78914 | -0.59943 | 9581 ft | 277 kts | 255° |
| 2026-05-04 17:54 | 51.78443 | -0.63000 | 10327 ft | 289 kts | 255° |
| 2026-05-04 17:55 | 51.77936 | -0.66277 | 10654 ft | 313 kts | 255° |
| 2026-05-04 17:55 | 51.77387 | -0.69821 | 11006 ft | 333 kts | 255° |
| 2026-05-04 17:55 | 51.76821 | -0.73506 | 11652 ft | 343 kts | 256° |
| 2026-05-04 17:55 | 51.76101 | -0.77207 | 12383 ft | 349 kts | 250° |
| 2026-05-04 17:56 | 51.75297 | -0.80926 | 13125 ft | 354 kts | 251° |
| 2026-05-04 17:56 | 51.74522 | -0.84717 | 13897 ft | 358 kts | 252° |
| 2026-05-04 17:56 | 51.73766 | -0.88571 | 14592 ft | 362 kts | 252° |
| 2026-05-04 17:56 | 51.73017 | -0.92471 | 15264 ft | 366 kts | 252° |
| 2026-05-04 17:57 | 51.72260 | -0.96423 | 15908 ft | 371 kts | 252° |
| 2026-05-04 17:57 | 51.71489 | -1.00411 | 16619 ft | 374 kts | 251° |
| 2026-05-04 17:57 | 51.70714 | -1.04387 | 17334 ft | 377 kts | 251° |
| 2026-05-04 17:57 | 51.69918 | -1.08431 | 17872 ft | 381 kts | 251° |
| 2026-05-04 17:58 | 51.69095 | -1.12571 | 18009 ft | 386 kts | 251° |
| 2026-05-04 17:58 | 51.68250 | -1.16794 | 18032 ft | 405 kts | 251° |
| 2026-05-04 17:58 | 51.67380 | -1.21145 | 18028 ft | 411 kts | 251° |
| 2026-05-04 17:58 | 51.66504 | -1.25542 | 18029 ft | 413 kts | 251° |
| 2026-05-04 17:59 | 51.65641 | -1.29886 | 18043 ft | 413 kts | 251° |
| 2026-05-04 17:59 | 51.64765 | -1.34289 | 18030 ft | 413 kts | 251° |
| 2026-05-04 17:59 | 51.63001 | -1.43083 | 18028 ft | 413 kts | 251° |
| 2026-05-04 18:00 | 51.62114 | -1.47488 | 18030 ft | 413 kts | 251° |
| 2026-05-04 18:00 | 51.61226 | -1.51877 | 18032 ft | 412 kts | 251° |
| 2026-05-04 18:00 | 51.60339 | -1.56257 | 18031 ft | 412 kts | 251° |
| 2026-05-04 18:00 | 51.59464 | -1.60636 | 18027 ft | 412 kts | 252° |
| 2026-05-04 18:01 | 51.58896 | -1.65140 | 18003 ft | 406 kts | 262° |
| 2026-05-04 18:01 | 51.58796 | -1.69629 | 17573 ft | 399 kts | 271° |
| 2026-05-04 18:01 | 51.59097 | -1.74047 | 17060 ft | 395 kts | 276° |
| 2026-05-04 18:02 | 51.59731 | -1.82489 | 15781 ft | 370 kts | 273° |
| 2026-05-04 18:02 | 51.59677 | -1.86528 | 15331 ft | 364 kts | 261° |
| 2026-05-04 18:02 | 51.59131 | -1.90564 | 15343 ft | 361 kts | 251° |
| 2026-05-04 18:02 | 51.58230 | -1.94107 | 15333 ft | 334 kts | 241° |
| 2026-05-04 18:03 | 51.57066 | -1.97228 | 15216 ft | 312 kts | 237° |
| 2026-05-04 18:03 | 51.55928 | -2.00094 | 14812 ft | 304 kts | 236° |
| 2026-05-04 18:03 | 51.54788 | -2.02953 | 14388 ft | 303 kts | 236° |
| 2026-05-04 18:03 | 51.53651 | -2.05803 | 14015 ft | 304 kts | 237° |
| 2026-05-04 18:04 | 51.52853 | -2.09024 | 13162 ft | 319 kts | 260° |
| 2026-05-04 18:04 | 51.52904 | -2.12666 | 12289 ft | 345 kts | 279° |
| 2026-05-04 18:04 | 51.53854 | -2.20264 | 11405 ft | 332 kts | 281° |
| 2026-05-04 18:05 | 51.54316 | -2.23775 | 10987 ft | 318 kts | 281° |
| 2026-05-04 18:05 | 51.54778 | -2.27188 | 10493 ft | 308 kts | 280° |
| 2026-05-04 18:05 | 51.55240 | -2.30502 | 10025 ft | 300 kts | 281° |
| 2026-05-04 18:05 | 51.55684 | -2.33697 | 9789 ft | 282 kts | 281° |
| 2026-05-04 18:06 | 51.56463 | -2.39432 | 9459 ft | 251 kts | 281° |
| 2026-05-04 18:06 | 51.56693 | -2.42170 | 9194 ft | 245 kts | 268° |
| 2026-05-04 18:06 | 51.56655 | -2.44911 | 8852 ft | 244 kts | 266° |
| 2026-05-04 18:07 | 51.56569 | -2.47641 | 8494 ft | 245 kts | 265° |
| 2026-05-04 18:07 | 51.56470 | -2.50367 | 8155 ft | 243 kts | 265° |
| 2026-05-04 18:07 | 51.56371 | -2.53065 | 8022 ft | 242 kts | 265° |
| 2026-05-04 18:07 | 51.56276 | -2.55764 | 8028 ft | 243 kts | 265° |
| 2026-05-04 18:08 | 51.56173 | -2.58476 | 8030 ft | 243 kts | 265° |
| 2026-05-04 18:08 | 51.56055 | -2.61177 | 7836 ft | 241 kts | 260° |
| 2026-05-04 18:08 | 51.55545 | -2.63713 | 7479 ft | 238 kts | 246° |
| 2026-05-04 18:08 | 51.54891 | -2.66159 | 7109 ft | 239 kts | 245° |
| 2026-05-04 18:09 | 51.53540 | -2.71021 | 6417 ft | 238 kts | 245° |
| 2026-05-04 18:09 | 51.52259 | -2.75582 | 6115 ft | 220 kts | 245° |
| 2026-05-04 18:10 | 51.51647 | -2.77749 | 5840 ft | 217 kts | 245° |
| 2026-05-04 18:10 | 51.51006 | -2.79999 | 5522 ft | 216 kts | 245° |
| 2026-05-04 18:10 | 51.50376 | -2.82193 | 5230 ft | 216 kts | 245° |
| 2026-05-04 18:10 | 51.49747 | -2.84366 | 4936 ft | 215 kts | 245° |
| 2026-05-04 18:11 | 51.49113 | -2.86535 | 4620 ft | 213 kts | 245° |
| 2026-05-04 18:11 | 51.48484 | -2.88682 | 4502 ft | 214 kts | 246° |
| 2026-05-04 18:11 | 51.47845 | -2.90835 | 4500 ft | 210 kts | 245° |
| 2026-05-04 18:11 | 51.47160 | -2.92835 | 4481 ft | 200 kts | 229° |
| 2026-05-04 18:12 | 51.46064 | -2.93815 | 5120 ft | 166 kts | 184° |
| 2026-05-04 18:12 | 51.45053 | -2.93440 | 5890 ft | 151 kts | 145° |
| 2026-05-04 18:12 | 51.44015 | -2.92771 | 5112 ft | 183 kts | 189° |
| 2026-05-04 18:12 | 51.42721 | -2.93536 | 4380 ft | 212 kts | 209° |
| 2026-05-04 18:13 | 51.41514 | -2.95018 | 3888 ft | 225 kts | 230° |
| 2026-05-04 18:13 | 51.40709 | -2.97185 | 3476 ft | 231 kts | 248° |
| 2026-05-04 18:13 | 51.39044 | -3.01495 | 2776 ft | 235 kts | 212° |
| 2026-05-04 18:14 | 51.37505 | -3.02188 | 2418 ft | 231 kts | 174° |
| 2026-05-04 18:14 | 51.36124 | -3.01097 | 2027 ft | 224 kts | 127° |
| 2026-05-04 18:14 | 51.35659 | -2.98722 | 1464 ft | 230 kts | 81° |
| 2026-05-04 18:15 | 51.36231 | -2.94230 | 1825 ft | 182 kts | 78° |
| 2026-05-04 18:15 | 51.36800 | -2.90739 | 2218 ft | 150 kts | 71° |
| 2026-05-04 18:15 | 51.37105 | -2.89149 | 2269 ft | 149 kts | 73° |
| 2026-05-04 18:16 | 51.37380 | -2.87571 | 2269 ft | 149 kts | 73° |
| 2026-05-04 18:16 | 51.37622 | -2.85946 | 2245 ft | 153 kts | 77° |
| 2026-05-04 18:16 | 51.37745 | -2.84255 | 2133 ft | 152 kts | 82° |
| 2026-05-04 18:17 | 51.37863 | -2.81502 | 1705 ft | 148 kts | 83° |
| 2026-05-04 18:17 | 51.37955 | -2.79371 | 1380 ft | 141 kts | 83° |
| 2026-05-04 18:17 | 51.38074 | -2.76681 | 1082 ft | 145 kts | 84° |
| 2026-05-04 18:18 | 51.38141 | -2.75117 | 885 ft | 140 kts | 84° |
| 2026-05-04 18:18 | 51.38201 | -2.73600 | 672 ft | 133 kts | 85° |
| 2026-05-04 18:18 | 51.38256 | -2.72293 | 624 ft | 85 kts | 87° |
| 2026-05-04 18:18 | 51.38273 | -2.71754 | 620 ft | 31 kts | 87° |
| 2026-05-04 18:19 | 51.38328 | -2.71466 | 605 ft | 11 kts | 342° |
| 2026-05-04 18:19 | 51.38394 | -2.71524 | 605 ft | 6 kts | 346° |
| 2026-05-04 18:19 | 51.38419 | -2.71527 | 608 ft | 0 kts | 12° |
| 2026-05-04 18:20 | 51.38420 | -2.71527 | 608 ft | 1 kts | 13° |
| 2026-05-04 18:20 | 51.38441 | -2.71473 | 618 ft | 6 kts | 79° |
| 2026-05-04 18:20 | 51.38445 | -2.71417 | 618 ft | 5 kts | 84° |
| 2026-05-04 18:21 | 51.38448 | -2.71361 | 616 ft | 6 kts | 86° |
| 2026-05-04 18:21 | 51.38453 | -2.71224 | 625 ft | 15 kts | 86° |
| 2026-05-04 18:21 | 51.38459 | -2.71044 | 616 ft | 18 kts | 87° |
| 2026-05-04 18:21 | 51.38466 | -2.70871 | 613 ft | 11 kts | 78° |
| 2026-05-04 18:22 | 51.38483 | -2.70839 | 617 ft | 3 kts | 25° |
| 2026-05-04 18:22 | 51.38522 | -2.70846 | 610 ft | 7 kts | 304° |
| 2026-05-04 18:22 | 51.38524 | -2.70905 | 611 ft | 5 kts | 268° |
| 2026-05-04 18:22 | 51.38524 | -2.70906 | 611 ft | 0 kts | 268° |